createdAt,value
2017-11-16T00:04:59.883Z,89.19
2017-11-16T00:11:03.421Z,89.13
2017-11-16T00:17:07.656Z,88.88
2017-11-16T00:23:11.165Z,89.05
2017-11-16T00:29:14.603Z,89.14
2017-11-16T00:35:18.080Z,89.56
2017-11-16T00:41:22.367Z,89.76
2017-11-16T00:47:25.838Z,89.91
2017-11-16T00:53:29.291Z,89.57
2017-11-16T00:59:32.778Z,89.67
2017-11-16T01:05:36.243Z,89.23
2017-11-16T01:11:39.717Z,89.02
2017-11-16T01:17:43.188Z,88.71
2017-11-16T01:23:47.403Z,88.81
2017-11-16T01:29:50.909Z,88.03
2017-11-16T01:35:54.366Z,88.07
2017-11-16T01:41:57.831Z,87.79
2017-11-16T01:48:02.047Z,86.68
2017-11-16T01:54:05.530Z,86.37
2017-11-16T02:00:09.038Z,85.93
2017-11-16T02:06:12.491Z,86.49
2017-11-16T02:12:16.719Z,86.97
2017-11-16T02:18:20.232Z,87.04
2017-11-16T02:24:23.703Z,87.13
2017-11-16T02:30:27.230Z,87.81
2017-11-16T02:36:30.696Z,87.81
2017-11-16T02:42:34.177Z,87.59
2017-11-16T02:48:37.616Z,86.87
2017-11-16T02:54:41.057Z,86.58
2017-11-16T03:00:44.637Z,86.74
2017-11-16T03:06:48.133Z,87.69
2017-11-16T03:12:51.614Z,87.78
2017-11-16T03:18:55.084Z,88.11
2017-11-16T03:24:58.547Z,88.50
2017-11-16T03:31:01.993Z,88.45
2017-11-16T03:37:05.464Z,88.83
2017-11-16T03:43:09.692Z,88.56
2017-11-16T03:49:13.148Z,88.31
2017-11-16T03:55:17.387Z,88.69
2017-11-16T04:01:20.953Z,88.85
2017-11-16T04:07:24.424Z,89.03
2017-11-16T04:13:28.689Z,89.46
2017-11-16T04:19:32.156Z,89.36
2017-11-16T04:25:35.625Z,89.28
2017-11-16T04:31:39.082Z,89.62
2017-11-16T04:37:43.313Z,89.54
2017-11-16T04:43:46.768Z,89.25
2017-11-16T04:49:51.069Z,89.14
2017-11-16T04:55:55.306Z,89.43
2017-11-16T05:01:58.786Z,89.40
2017-11-16T05:08:02.593Z,89.39
2017-11-16T05:14:06.048Z,89.23
2017-11-16T05:20:09.505Z,89.35
2017-11-16T05:26:13.743Z,88.92
2017-11-16T05:32:17.197Z,88.80
2017-11-16T05:38:21.429Z,89.11
2017-11-16T05:44:24.897Z,88.98
2017-11-16T05:50:28.355Z,88.81
2017-11-16T05:56:32.599Z,88.48
2017-11-16T06:02:36.102Z,88.87
2017-11-16T06:08:39.567Z,88.63
2017-11-16T06:14:43.042Z,88.32
2017-11-16T06:20:46.680Z,88.30
2017-11-16T06:26:50.162Z,88.89
2017-11-16T06:32:53.642Z,88.90
2017-11-16T06:38:57.111Z,88.90
2017-11-16T06:45:00.636Z,88.64
2017-11-16T06:51:04.872Z,88.90
2017-11-16T06:57:08.332Z,88.70
2017-11-16T07:03:12.578Z,89.10
2017-11-16T07:09:16.040Z,88.86
2017-11-16T07:15:19.492Z,88.41
2017-11-16T07:21:23.749Z,88.77
2017-11-16T07:27:27.218Z,88.67
2017-11-16T07:33:30.714Z,88.80
2017-11-16T07:39:34.172Z,88.48
2017-11-16T07:45:37.647Z,88.57
2017-11-16T07:51:41.171Z,88.21
2017-11-16T07:57:44.654Z,88.42
2017-11-16T08:03:48.122Z,88.90
2017-11-16T08:09:51.575Z,88.29
2017-11-16T08:15:55.044Z,88.54
2017-11-16T08:21:59.283Z,87.92
2017-11-16T08:28:02.821Z,87.18
2017-11-16T08:34:07.051Z,86.23
2017-11-16T08:40:10.671Z,86.23
2017-11-16T08:46:14.109Z,86.72
2017-11-16T08:52:18.454Z,86.00
2017-11-16T08:58:22.001Z,85.93
2017-11-16T09:04:26.237Z,85.68
2017-11-16T09:10:29.669Z,84.76
2017-11-16T09:16:33.115Z,84.63
2017-11-16T09:22:36.696Z,84.60
2017-11-16T09:28:40.143Z,85.22
2017-11-16T09:34:44.359Z,85.28
2017-11-16T09:40:47.804Z,85.17
2017-11-16T09:46:51.255Z,84.57
2017-11-16T09:52:54.699Z,84.29
2017-11-16T09:58:58.161Z,84.78
2017-11-16T10:05:03.176Z,83.77
2017-11-16T10:11:06.665Z,84.64
2017-11-16T10:17:10.922Z,83.07
2017-11-16T10:23:14.371Z,83.41
2017-11-16T10:29:18.595Z,83.32
2017-11-16T10:35:22.101Z,83.96
2017-11-16T10:41:25.565Z,82.77
2017-11-16T10:47:29.012Z,83.04
2017-11-16T10:53:33.255Z,82.45
2017-11-16T10:59:36.729Z,82.71
2017-11-16T11:05:40.369Z,82.10
2017-11-16T11:11:43.854Z,82.02
2017-11-16T11:17:47.453Z,82.05
2017-11-16T11:23:51.681Z,82.54
2017-11-16T11:29:55.128Z,81.46
2017-11-16T11:35:58.738Z,81.57
2017-11-16T11:42:02.781Z,80.18
2017-11-16T11:48:06.234Z,81.29
2017-11-16T11:54:09.691Z,82.01
2017-11-16T12:00:13.935Z,81.51
2017-11-16T12:06:17.400Z,81.06
2017-11-16T12:12:20.853Z,81.36
2017-11-16T12:18:25.076Z,81.96
2017-11-16T12:24:28.536Z,82.44
2017-11-16T12:30:32.776Z,82.44
2017-11-16T12:36:36.442Z,81.28
2017-11-16T12:42:40.648Z,81.37
2017-11-16T12:48:44.850Z,82.06
2017-11-16T12:54:48.302Z,81.30
2017-11-16T13:00:52.549Z,80.83
2017-11-16T13:06:56.008Z,80.98
2017-11-16T13:13:00.255Z,81.31
2017-11-16T13:19:03.687Z,81.42
2017-11-16T13:25:07.950Z,80.80
2017-11-16T13:31:11.416Z,81.45
2017-11-16T13:37:14.942Z,81.38
2017-11-16T13:43:18.415Z,82.36
2017-11-16T13:49:21.896Z,80.53
2017-11-16T14:01:35.771Z,81.72
2017-11-16T14:07:40.032Z,81.90
2017-11-16T14:13:43.483Z,82.28
2017-11-16T14:19:46.956Z,83.15
2017-11-16T14:25:50.446Z,83.15
2017-11-16T14:31:53.905Z,83.29
2017-11-16T14:37:57.368Z,84.21
2017-11-16T14:44:00.880Z,83.65
2017-11-16T14:50:04.324Z,83.81
2017-11-16T14:56:07.765Z,83.59
2017-11-16T15:02:11.252Z,84.29
2017-11-16T15:08:14.713Z,85.27
2017-11-16T15:14:18.181Z,85.83
2017-11-16T15:20:22.409Z,86.19
2017-11-16T15:26:25.892Z,86.19
2017-11-16T15:32:29.373Z,86.40
2017-11-16T15:38:32.867Z,86.45
2017-11-16T15:44:36.351Z,86.31
2017-11-16T15:50:39.842Z,86.31
2017-11-16T15:56:43.311Z,86.18
2017-11-16T16:02:46.794Z,86.11
2017-11-16T16:08:50.273Z,85.98
2017-11-16T16:14:53.747Z,86.04
2017-11-16T16:20:57.244Z,85.92
2017-11-16T16:27:00.749Z,86.58
2017-11-16T16:33:04.229Z,86.68
2017-11-16T16:39:07.681Z,86.49
2017-11-16T16:45:11.932Z,86.76
2017-11-16T16:51:15.399Z,86.81
2017-11-16T16:57:19.019Z,87.04
2017-11-16T17:03:22.556Z,87.77
2017-11-16T17:09:26.021Z,87.38
2017-11-16T17:15:30.853Z,87.90
2017-11-16T17:21:34.328Z,87.92
2017-11-16T17:27:38.586Z,87.92
2017-11-16T17:33:42.040Z,87.98
2017-11-16T17:39:45.522Z,87.38
2017-11-16T17:45:48.987Z,87.35
2017-11-16T17:51:52.470Z,87.62
2017-11-16T17:57:55.959Z,87.65
2017-11-16T18:03:59.431Z,87.98
2017-11-16T18:10:03.751Z,87.99
2017-11-16T18:16:07.234Z,87.56
2017-11-16T18:22:10.716Z,87.70
2017-11-16T18:28:14.183Z,87.94
2017-11-16T18:34:18.459Z,88.00
2017-11-16T18:40:21.928Z,87.94
2017-11-16T18:46:25.430Z,88.33
2017-11-16T18:52:28.942Z,88.48
2017-11-16T18:58:32.403Z,88.54
2017-11-16T19:04:35.890Z,88.89
2017-11-16T19:10:39.372Z,88.85
2017-11-16T19:16:42.932Z,88.89
2017-11-16T19:22:46.399Z,88.71
2017-11-16T19:28:49.893Z,89.03
2017-11-16T19:34:53.375Z,88.88
2017-11-16T19:40:56.866Z,88.69
2017-11-16T19:47:00.346Z,88.35
2017-11-16T19:53:03.805Z,88.15
2017-11-16T19:59:07.308Z,88.85
2017-11-16T20:05:10.787Z,88.40
2017-11-16T20:11:14.289Z,88.28
2017-11-16T20:17:18.121Z,88.48
2017-11-16T20:23:22.364Z,88.78
2017-11-16T20:29:25.852Z,88.93
2017-11-16T20:35:29.324Z,88.56
2017-11-16T20:41:51.384Z,88.53
2017-11-16T20:48:00.297Z,88.32
2017-11-16T20:54:03.759Z,88.92
2017-11-16T21:00:07.232Z,89.75
2017-11-16T21:06:10.719Z,89.79
2017-11-16T21:12:14.175Z,89.97
2017-11-16T21:18:17.601Z,90.13
2017-11-16T21:24:21.090Z,90.47
2017-11-16T21:30:24.551Z,89.63
2017-11-16T21:36:28.047Z,90.03
2017-11-16T21:42:31.509Z,89.85
2017-11-16T21:48:34.988Z,89.28
2017-11-16T21:54:38.443Z,89.14
2017-11-16T22:00:42.672Z,89.01
2017-11-16T22:06:46.149Z,89.62
2017-11-16T22:12:49.603Z,89.33
2017-11-16T22:18:53.837Z,91.71
2017-11-16T22:24:57.311Z,89.19
2017-11-16T22:31:00.799Z,89.65
2017-11-16T22:37:04.264Z,89.73
2017-11-16T22:43:08.531Z,89.76
2017-11-16T22:49:11.988Z,89.71
2017-11-16T22:55:15.462Z,89.87
2017-11-16T23:01:18.928Z,89.99
2017-11-16T23:07:22.397Z,90.23
2017-11-16T23:13:26.658Z,90.41
2017-11-16T23:19:30.146Z,90.08
2017-11-16T23:25:33.639Z,90.17
2017-11-16T23:31:37.112Z,90.20
2017-11-16T23:37:40.594Z,90.47
2017-11-16T23:43:44.069Z,90.28
2017-11-16T23:49:47.539Z,90.34
2017-11-16T23:55:50.996Z,90.38
